createdAt,value
2023-03-30T00:00:23.339Z,42.65
2023-03-30T00:05:25.903Z,37.55
2023-03-30T00:10:27.313Z,37.30
2023-03-30T00:15:28.744Z,41.95
2023-03-30T00:20:32.330Z,41.55
2023-03-30T00:25:33.747Z,41.37
2023-03-30T00:30:35.215Z,39.28
2023-03-30T00:35:36.646Z,42.83
2023-03-30T00:40:38.457Z,41.90
2023-03-30T00:45:40.957Z,40.35
2023-03-30T00:50:44.525Z,42.25
2023-03-30T00:55:47.244Z,43.67
2023-03-30T01:00:48.720Z,43.55
2023-03-30T01:05:51.578Z,43.47
2023-03-30T01:10:53.800Z,42.50
2023-03-30T01:16:01.323Z,40.67
2023-03-30T01:21:23.944Z,41.40
2023-03-30T01:26:35.628Z,40.92
2023-03-30T01:31:45.985Z,42.83
2023-03-30T01:36:48.539Z,44.15
2023-03-30T01:42:05.924Z,42.72
2023-03-30T01:47:14.742Z,43.20
2023-03-30T01:52:21.981Z,41.28
2023-03-30T01:57:30.264Z,44.15
2023-03-30T02:02:32.847Z,43.25
2023-03-30T02:07:35.850Z,43.42
2023-03-30T02:12:37.969Z,44.17
2023-03-30T02:17:42.265Z,46.90
2023-03-30T02:22:44.188Z,43.30
2023-03-30T02:27:45.835Z,42.33
2023-03-30T02:32:53.351Z,41.58
2023-03-30T02:37:58.649Z,39.90
2023-03-30T02:43:18.978Z,38.38
2023-03-30T02:48:23.666Z,40.08
2023-03-30T02:53:31.575Z,36.03
2023-03-30T02:58:42.453Z,36.28
2023-03-30T03:03:45.849Z,35.63
2023-03-30T03:08:50.589Z,35.83
2023-03-30T03:13:52.400Z,33.50
2023-03-30T03:18:53.858Z,33.55
2023-03-30T03:23:55.342Z,35.60
2023-03-30T03:28:56.834Z,32.60
2023-03-30T03:33:58.264Z,31.73
2023-03-30T03:38:59.676Z,32.70
2023-03-30T03:44:01.262Z,31.25
2023-03-30T03:49:02.990Z,32.97
2023-03-30T03:54:04.345Z,34.03
2023-03-30T03:59:05.749Z,32.60
2023-03-30T04:04:07.216Z,29.38
2023-03-30T04:09:08.621Z,31.88
2023-03-30T04:14:10.207Z,31.95
2023-03-30T04:19:12.699Z,32.10
2023-03-30T04:24:14.121Z,30.33
2023-03-30T04:29:20.742Z,29.77
2023-03-30T04:34:22.184Z,31.10
2023-03-30T04:39:23.763Z,29.88
2023-03-30T04:44:25.379Z,29.45
2023-03-30T04:49:27.426Z,29.08
2023-03-30T04:54:30.682Z,28.45
2023-03-30T04:59:33.492Z,28.27
2023-03-30T05:04:35.353Z,29.67
2023-03-30T05:09:36.799Z,27.58
2023-03-30T05:14:38.268Z,30.10
2023-03-30T05:19:39.675Z,28.65
2023-03-30T05:24:41.330Z,26.25
2023-03-30T05:29:42.765Z,28.35
2023-03-30T05:34:44.179Z,26.73
2023-03-30T05:39:45.556Z,25.45
2023-03-30T05:44:47.099Z,24.80
2023-03-30T05:49:48.574Z,24.35
2023-03-30T05:54:49.923Z,23.60
2023-03-30T05:59:51.376Z,21.75
2023-03-30T06:04:53.501Z,22.42
2023-03-30T06:09:55.090Z,22.08
2023-03-30T06:14:56.463Z,21.13
2023-03-30T06:19:57.969Z,20.42
2023-03-30T06:24:59.344Z,20.92
2023-03-30T06:30:00.920Z,20.65
2023-03-30T06:35:03.974Z,17.92
2023-03-30T06:40:09.068Z,19.10
2023-03-30T06:45:11.272Z,18.17
2023-03-30T06:50:13.426Z,19.52
2023-03-30T06:55:15.001Z,19.33
2023-03-30T07:00:16.903Z,18.90
2023-03-30T07:05:18.323Z,18.77
2023-03-30T07:10:21.261Z,17.30
2023-03-30T07:15:23.311Z,18.48
2023-03-30T07:20:24.707Z,17.02
2023-03-30T07:25:27.006Z,17.05
2023-03-30T07:30:28.450Z,16.15
2023-03-30T07:35:29.922Z,15.65
2023-03-30T07:40:31.693Z,15.82
2023-03-30T07:45:33.824Z,15.00
2023-03-30T07:50:35.368Z,13.90
2023-03-30T07:55:37.654Z,15.63
2023-03-30T08:00:39.684Z,14.10
2023-03-30T08:05:41.719Z,13.70
2023-03-30T08:10:43.082Z,14.07
2023-03-30T08:15:45.096Z,12.10
2023-03-30T08:20:49.679Z,12.38
2023-03-30T08:30:54.703Z,11.63
2023-03-30T08:35:56.160Z,11.20
2023-03-30T08:40:57.592Z,9.95
2023-03-30T08:46:00.501Z,10.13
2023-03-30T08:51:05.793Z,9.07
2023-03-30T08:56:10.453Z,7.63
2023-03-30T09:01:30.555Z,7.00
2023-03-30T09:06:51.915Z,6.30
2023-03-30T09:12:16.473Z,5.50
2023-03-30T09:17:21.209Z,5.43
2023-03-30T09:22:27.296Z,5.22
2023-03-30T09:27:41.723Z,4.68
2023-03-30T09:32:46.657Z,4.80
2023-03-30T09:37:48.649Z,4.25
2023-03-30T09:43:04.820Z,3.67
2023-03-30T09:48:08.589Z,4.93
2023-03-30T09:53:24.853Z,4.10
2023-03-30T09:58:28.563Z,4.55
2023-03-30T10:03:30.396Z,4.70
2023-03-30T10:08:32.139Z,4.75
2023-03-30T10:13:35.914Z,4.00
2023-03-30T10:18:41.578Z,3.90
2023-03-30T10:23:44.909Z,4.40
2023-03-30T10:28:53.761Z,3.45
2023-03-30T10:33:57.806Z,4.13
2023-03-30T10:39:08.639Z,3.00
2023-03-30T10:44:30.243Z,3.30
2023-03-30T10:49:34.445Z,2.92
2023-03-30T10:54:42.747Z,3.50
2023-03-30T10:59:59.992Z,3.83
2023-03-30T11:05:01.678Z,3.97
2023-03-30T11:10:32.118Z,3.90
2023-03-30T11:15:37.375Z,3.80
2023-03-30T11:20:57.752Z,4.22
2023-03-30T11:26:04.251Z,3.60
2023-03-30T11:31:15.309Z,4.10
2023-03-30T11:36:32.443Z,4.13
2023-03-30T11:41:40.851Z,5.00
2023-03-30T11:46:47.965Z,3.58
2023-03-30T11:52:08.337Z,3.28
2023-03-30T11:57:24.894Z,5.03
2023-03-30T12:02:31.637Z,3.83
2023-03-30T12:07:35.938Z,4.03
2023-03-30T12:12:39.441Z,3.22
2023-03-30T12:18:00.701Z,3.43
2023-03-30T12:23:05.626Z,3.38
2023-03-30T12:28:12.734Z,3.85
2023-03-30T12:33:18.513Z,4.28
2023-03-30T12:38:23.575Z,3.85
2023-03-30T12:43:32.906Z,2.60
2023-03-30T12:48:52.786Z,2.75
2023-03-30T12:53:54.255Z,3.10
2023-03-30T12:59:14.293Z,3.35
2023-03-30T13:04:24.613Z,2.75
2023-03-30T13:09:26.238Z,2.63
2023-03-30T13:14:27.735Z,3.05
2023-03-30T13:19:32.001Z,2.67
2023-03-30T13:24:33.392Z,3.10
2023-03-30T13:29:34.735Z,2.58
2023-03-30T13:34:39.468Z,3.42
2023-03-30T13:39:54.384Z,2.72
2023-03-30T13:44:57.365Z,3.28
2023-03-30T13:50:00.644Z,3.13
2023-03-30T13:55:02.824Z,3.42
2023-03-30T14:00:19.642Z,3.17
2023-03-30T14:05:23.015Z,3.90
2023-03-30T14:10:25.531Z,2.57
2023-03-30T14:15:33.911Z,3.30
2023-03-30T14:20:35.566Z,3.10
2023-03-30T14:25:40.111Z,2.33
2023-03-30T14:30:56.790Z,2.75
2023-03-30T14:35:59.883Z,2.85
2023-03-30T14:41:01.522Z,3.60
2023-03-30T14:46:04.384Z,3.97
2023-03-30T14:51:10.339Z,3.78
2023-03-30T14:56:12.073Z,3.58
2023-03-30T15:01:15.520Z,4.50
2023-03-30T15:06:24.557Z,3.92
2023-03-30T15:11:27.660Z,4.95
2023-03-30T15:16:31.332Z,4.20
2023-03-30T15:21:35.320Z,3.67
2023-03-30T15:26:39.570Z,4.53
2023-03-30T15:31:42.798Z,3.85
2023-03-30T15:36:45.473Z,5.25
2023-03-30T15:41:55.855Z,5.80
2023-03-30T15:46:58.293Z,8.05
2023-03-30T15:52:01.848Z,11.25
2023-03-30T15:57:13.788Z,12.30
2023-03-30T16:02:15.604Z,7.40
2023-03-30T16:07:21.164Z,10.80
2023-03-30T16:12:27.486Z,10.27
2023-03-30T16:17:28.912Z,14.13
2023-03-30T16:22:30.444Z,10.93
2023-03-30T16:27:32.149Z,11.60
2023-03-30T16:32:35.819Z,8.63
2023-03-30T16:37:37.446Z,7.47
2023-03-30T16:42:38.863Z,6.05
2023-03-30T16:47:40.653Z,5.32
2023-03-30T16:52:42.099Z,5.57
2023-03-30T16:57:43.697Z,5.22
2023-03-30T17:02:45.524Z,5.40
2023-03-30T17:07:47.233Z,6.38
2023-03-30T17:12:49.702Z,7.70
2023-03-30T17:17:52.910Z,6.05
2023-03-30T17:22:54.444Z,7.47
2023-03-30T17:27:56.384Z,6.68
2023-03-30T17:32:57.902Z,6.63
2023-03-30T17:37:59.851Z,7.10
2023-03-30T17:43:01.304Z,7.82
2023-03-30T17:48:03.739Z,7.78
2023-03-30T17:53:05.547Z,8.90
2023-03-30T17:58:15.720Z,8.40
2023-03-30T18:03:18.064Z,8.18
2023-03-30T18:08:21.410Z,7.85
2023-03-30T18:13:23.727Z,6.82
2023-03-30T18:18:26.209Z,8.07
2023-03-30T18:23:27.583Z,8.05
2023-03-30T18:28:29.180Z,6.65
2023-03-30T18:33:30.686Z,6.15
2023-03-30T18:38:33.250Z,7.15
2023-03-30T18:43:35.937Z,8.05
2023-03-30T18:48:37.289Z,6.50
2023-03-30T18:53:39.045Z,7.07
2023-03-30T18:58:42.566Z,7.30
2023-03-30T19:03:45.055Z,8.30
2023-03-30T19:08:47.029Z,8.10
2023-03-30T19:13:48.712Z,6.50
2023-03-30T19:18:50.295Z,7.53
2023-03-30T19:23:51.872Z,8.65
2023-03-30T19:28:53.239Z,7.50
2023-03-30T19:33:54.939Z,7.75
2023-03-30T19:38:56.399Z,8.82
2023-03-30T19:43:57.795Z,6.78
2023-03-30T19:48:59.202Z,8.07
2023-03-30T19:54:00.718Z,7.20
2023-03-30T19:59:02.423Z,7.97
2023-03-30T20:04:04.219Z,8.40
2023-03-30T20:09:05.660Z,6.22
2023-03-30T20:14:07.433Z,7.93
2023-03-30T20:19:22.377Z,7.95
2023-03-30T20:24:28.152Z,8.65
2023-03-30T20:29:29.593Z,7.85
2023-03-30T20:34:34.603Z,8.07
2023-03-30T20:39:37.210Z,8.18
2023-03-30T20:44:41.079Z,8.45
2023-03-30T20:49:43.706Z,7.78
2023-03-30T20:54:45.381Z,7.90
2023-03-30T20:59:48.090Z,7.65
2023-03-30T21:04:50.358Z,8.85
2023-03-30T21:09:51.944Z,8.05
2023-03-30T21:14:53.368Z,7.80
2023-03-30T21:19:54.815Z,7.20
2023-03-30T21:24:56.410Z,9.60
2023-03-30T21:29:58.098Z,7.88
2023-03-30T21:34:59.558Z,7.72
2023-03-30T21:40:01.147Z,8.52
2023-03-30T21:45:02.651Z,9.20
2023-03-30T21:50:04.344Z,9.82
2023-03-30T21:55:06.099Z,7.28
2023-03-30T22:00:10.209Z,9.00
2023-03-30T22:05:11.823Z,8.98
2023-03-30T22:10:13.170Z,9.38
2023-03-30T22:15:14.588Z,8.82
2023-03-30T22:20:16.774Z,7.78
2023-03-30T22:25:18.192Z,9.60
2023-03-30T22:30:19.742Z,9.27
2023-03-30T22:35:21.443Z,10.52
2023-03-30T22:40:22.814Z,7.38
2023-03-30T22:45:25.631Z,8.32
2023-03-30T22:50:27.740Z,7.53
2023-03-30T22:55:29.143Z,9.30
2023-03-30T23:00:30.875Z,9.70
2023-03-30T23:05:33.535Z,9.77
2023-03-30T23:10:37.411Z,8.90
2023-03-30T23:15:38.758Z,8.93
2023-03-30T23:20:40.737Z,7.75
2023-03-30T23:25:51.606Z,9.18
2023-03-30T23:30:53.023Z,6.63
2023-03-30T23:35:54.569Z,7.13
2023-03-30T23:40:56.831Z,8.80
2023-03-30T23:45:58.209Z,7.25
2023-03-30T23:50:59.707Z,6.55
2023-03-30T23:56:05.889Z,7.35
